Time;durP1;ratioP1;P1;durP2;ratioP2;P2;SDS_P1;SDS_P2;PMS_P1;PMS_P2;Temp;Humidity;BMP_temperature;BMP_pressure;BME280_temperature;BME280_humidity;BME280_pressure;Samples;Min_cycle;Max_cycle;Signal;HPM_P1;HPM_P2
2021/09/19 00:00:07;;;;;;;13.80;10.38;;;;;;;;;;5041325;28;20076;-63
2021/09/19 00:02:33;;;;;;;13.45;9.82;;;;;;;;;;5057854;28;20044;-64
2021/09/19 00:05:00;;;;;;;11.25;9.98;;;;;;;;;;5055490;28;20067;-64
2021/09/19 00:07:26;;;;;;;11.10;8.93;;;;;;;;;;5039757;28;20103;-64
2021/09/19 00:09:52;;;;;;;13.05;9.73;;;;;;;;;;5041880;28;20139;-64
2021/09/19 00:12:18;;;;;;;10.95;8.40;;;;;;;;;;5042992;28;20133;-64
2021/09/19 00:14:44;;;;;;;11.00;8.77;;;;;;;;;;5046733;28;20037;-64
2021/09/19 00:17:11;;;;;;;10.68;8.18;;;;;;;;;;5040603;28;20052;-64
2021/09/19 00:19:37;;;;;;;12.55;8.80;;;;;;;;;;5060549;28;20067;-64
2021/09/19 00:22:04;;;;;;;11.65;9.70;;;;;;;;;;5042855;28;20463;-64
2021/09/19 00:24:30;;;;;;;11.25;9.15;;;;;;;;;;5054824;28;20128;-64
2021/09/19 00:26:56;;;;;;;11.95;9.27;;;;;;;;;;5056855;28;20119;-64
2021/09/19 00:29:23;;;;;;;11.68;8.63;;;;;;;;;;5040809;28;20044;-64
2021/09/19 00:31:49;;;;;;;10.27;8.50;;;;;;;;;;5043169;28;20106;-63
2021/09/19 00:34:15;;;;;;;11.10;8.68;;;;;;;;;;5064189;28;20029;-64
2021/09/19 00:36:41;;;;;;;10.18;8.82;;;;;;;;;;5040435;28;20060;-64
2021/09/19 00:39:08;;;;;;;8.57;7.45;;;;;;;;;;5056616;28;20051;-64
2021/09/19 00:41:34;;;;;;;9.38;7.57;;;;;;;;;;5058513;28;20076;-64
2021/09/19 00:44:04;;;;;;;11.75;8.60;;;;;;;;;;5057316;28;20421;-64
2021/09/19 00:46:31;;;;;;;9.52;7.18;;;;;;;;;;5057561;28;20055;-64
2021/09/19 00:48:57;;;;;;;8.90;7.25;;;;;;;;;;5052977;28;20439;-64
2021/09/19 00:51:23;;;;;;;8.98;7.43;;;;;;;;;;5057320;28;20548;-64
2021/09/19 00:53:51;;;;;;;10.88;7.47;;;;;;;;;;5038702;28;20094;-64
2021/09/19 00:56:23;;;;;;;13.63;7.70;;;;;;;;;;5040627;28;20053;-64
2021/09/19 00:58:51;;;;;;;12.35;7.38;;;;;;;;;;5055713;28;20051;-64
2021/09/19 01:01:17;;;;;;;8.48;6.32;;;;;;;;;;5057843;28;20514;-64
2021/09/19 01:03:44;;;;;;;8.55;6.25;;;;;;;;;;5058612;28;20044;-64
2021/09/19 01:06:10;;;;;;;9.05;7.10;;;;;;;;;;5039892;28;20515;-64
2021/09/19 01:08:42;;;;;;;11.40;6.80;;;;;;;;;;5058007;28;20045;-64
2021/09/19 01:11:09;;;;;;;9.48;6.40;;;;;;;;;;5061777;28;20063;-64
2021/09/19 01:13:36;;;;;;;7.68;5.85;;;;;;;;;;5057856;28;20135;-64
2021/09/19 01:16:02;;;;;;;9.25;6.13;;;;;;;;;;5039830;28;20052;-64
2021/09/19 01:18:29;;;;;;;9.32;5.80;;;;;;;;;;5037658;28;20064;-64
2021/09/19 01:20:56;;;;;;;9.60;6.00;;;;;;;;;;5036500;28;20439;-63
2021/09/19 01:23:22;;;;;;;8.18;5.25;;;;;;;;;;5024302;28;20476;-64
2021/09/19 01:25:50;;;;;;;7.13;5.30;;;;;;;;;;5058695;28;20076;-64
2021/09/19 01:28:16;;;;;;;7.53;5.50;;;;;;;;;;5061675;28;20052;-64
2021/09/19 01:30:42;;;;;;;6.28;5.30;;;;;;;;;;5039962;28;20124;-64
2021/09/19 01:33:08;;;;;;;6.72;5.35;;;;;;;;;;5040336;28;20045;-64
2021/09/19 01:35:35;;;;;;;9.00;5.15;;;;;;;;;;5036954;28;20053;-64
2021/09/19 01:38:01;;;;;;;8.65;4.43;;;;;;;;;;5038502;28;20055;-64
2021/09/19 01:40:28;;;;;;;7.28;5.32;;;;;;;;;;5060159;28;20127;-64
2021/09/19 01:42:54;;;;;;;6.30;4.90;;;;;;;;;;5038333;28;20461;-64
2021/09/19 01:45:20;;;;;;;7.47;5.10;;;;;;;;;;5053935;28;20491;-64
2021/09/19 01:47:47;;;;;;;6.30;4.68;;;;;;;;;;5059844;28;20067;-64
2021/09/19 01:50:13;;;;;;;7.22;4.80;;;;;;;;;;5060318;28;20041;-64
2021/09/19 01:52:39;;;;;;;8.45;5.13;;;;;;;;;;5059529;28;20044;-64
2021/09/19 01:55:06;;;;;;;5.90;4.43;;;;;;;;;;5060798;28;20048;-64
2021/09/19 01:57:32;;;;;;;7.13;4.55;;;;;;;;;;5059018;28;20148;-64
2021/09/19 01:59:58;;;;;;;7.72;5.38;;;;;;;;;;5047246;28;20122;-63
2021/09/19 02:02:25;;;;;;;7.85;4.28;;;;;;;;;;5061439;28;20127;-63
2021/09/19 02:04:52;;;;;;;8.77;4.47;;;;;;;;;;5060355;28;20778;-63
2021/09/19 02:07:18;;;;;;;8.13;4.38;;;;;;;;;;5059496;28;20040;-64
2021/09/19 02:09:44;;;;;;;8.80;4.60;;;;;;;;;;5043241;28;20094;-64
2021/09/19 02:12:14;;;;;;;12.00;5.85;;;;;;;;;;5043613;28;20064;-64
2021/09/19 02:14:41;;;;;;;7.50;4.20;;;;;;;;;;5062828;28;20480;-64
2021/09/19 02:17:07;;;;;;;10.82;5.10;;;;;;;;;;5061560;28;20040;-64
2021/09/19 02:19:33;;;;;;;8.40;4.72;;;;;;;;;;5040196;28;20197;-64
2021/09/19 02:21:59;;;;;;;6.63;4.68;;;;;;;;;;5060629;28;20041;-64
2021/09/19 02:24:25;;;;;;;7.03;5.45;;;;;;;;;;5056643;28;20080;-64
2021/09/19 02:26:52;;;;;;;7.05;5.53;;;;;;;;;;5045336;28;20040;-64
2021/09/19 02:29:18;;;;;;;7.75;5.78;;;;;;;;;;5043063;28;20128;-64
2021/09/19 02:31:44;;;;;;;8.02;5.47;;;;;;;;;;5039328;28;20053;-64
2021/09/19 02:34:10;;;;;;;9.23;6.38;;;;;;;;;;5042465;28;20045;-64
2021/09/19 02:36:40;;;;;;;8.25;5.65;;;;;;;;;;5040168;28;20080;-64
2021/09/19 02:39:07;;;;;;;8.15;5.65;;;;;;;;;;5007617;28;20123;-64
2021/09/19 02:41:34;;;;;;;9.70;6.38;;;;;;;;;;5043056;28;20046;-64
2021/09/19 02:44:00;;;;;;;11.35;6.50;;;;;;;;;;5040759;28;20424;-64
2021/09/19 02:46:26;;;;;;;8.02;6.50;;;;;;;;;;5040152;28;20067;-64
2021/09/19 02:48:52;;;;;;;11.18;5.72;;;;;;;;;;5025717;28;20053;-64
2021/09/19 02:51:18;;;;;;;7.60;6.18;;;;;;;;;;5022093;28;20084;-64
2021/09/19 02:53:46;;;;;;;10.30;6.32;;;;;;;;;;5022627;28;20487;-64
2021/09/19 02:56:12;;;;;;;8.52;6.63;;;;;;;;;;5038890;28;20551;-64
2021/09/19 02:58:38;;;;;;;10.65;7.05;;;;;;;;;;5022194;28;20136;-64
2021/09/19 03:01:05;;;;;;;8.75;6.72;;;;;;;;;;5039127;28;20049;-64
2021/09/19 03:03:31;;;;;;;8.45;7.10;;;;;;;;;;5023553;28;20041;-64
2021/09/19 03:05:57;;;;;;;10.88;7.65;;;;;;;;;;5041628;28;20132;-64
2021/09/19 03:08:23;;;;;;;11.18;8.00;;;;;;;;;;5039490;28;20049;-64
2021/09/19 03:10:50;;;;;;;8.20;6.93;;;;;;;;;;5036397;28;20057;-64
2021/09/19 03:13:16;;;;;;;9.88;7.57;;;;;;;;;;5023046;28;20055;-64
2021/09/19 03:15:43;;;;;;;10.32;7.53;;;;;;;;;;5023314;28;20531;-64
2021/09/19 03:18:09;;;;;;;12.18;7.50;;;;;;;;;;5023382;28;20403;-64
2021/09/19 03:20:35;;;;;;;9.57;7.35;;;;;;;;;;5036649;28;20037;-64
2021/09/19 03:23:01;;;;;;;11.35;8.23;;;;;;;;;;5020645;28;20059;-64
2021/09/19 03:25:28;;;;;;;10.43;8.50;;;;;;;;;;5022284;28;20504;-64
2021/09/19 03:27:54;;;;;;;10.00;7.75;;;;;;;;;;5025259;28;20129;-64
2021/09/19 03:30:20;;;;;;;12.68;8.27;;;;;;;;;;5040652;28;20379;-64
2021/09/19 03:32:46;;;;;;;9.93;8.75;;;;;;;;;;5020000;28;20046;-64
2021/09/19 03:35:13;;;;;;;10.60;8.88;;;;;;;;;;5021923;28;20388;-64
2021/09/19 03:37:39;;;;;;;11.55;8.85;;;;;;;;;;5021874;28;20049;-64
2021/09/19 03:40:06;;;;;;;10.55;8.90;;;;;;;;;;5023514;28;20048;-64
2021/09/19 03:42:33;;;;;;;10.27;9.18;;;;;;;;;;5020981;28;20072;-64
2021/09/19 03:44:59;;;;;;;12.93;9.43;;;;;;;;;;5040594;28;20048;-64
2021/09/19 03:47:25;;;;;;;12.48;9.40;;;;;;;;;;5022833;28;20140;-64
2021/09/19 03:49:51;;;;;;;23.60;10.30;;;;;;;;;;5041621;28;20064;-64
2021/09/19 03:52:17;;;;;;;14.85;10.02;;;;;;;;;;5038253;28;20405;-64
2021/09/19 03:54:44;;;;;;;13.70;9.93;;;;;;;;;;5038634;28;20511;-64
2021/09/19 03:57:10;;;;;;;12.05;9.50;;;;;;;;;;5022914;28;20056;-64
2021/09/19 03:59:36;;;;;;;13.80;9.90;;;;;;;;;;5043330;28;20049;-64
2021/09/19 04:02:02;;;;;;;12.23;10.00;;;;;;;;;;5040349;28;20097;-64
2021/09/19 04:04:30;;;;;;;12.60;9.77;;;;;;;;;;5040109;28;20404;-64
2021/09/19 04:06:56;;;;;;;13.32;10.65;;;;;;;;;;5025359;28;20044;-64
2021/09/19 04:09:22;;;;;;;12.98;9.85;;;;;;;;;;5042277;28;20489;-64
2021/09/19 04:11:48;;;;;;;12.98;10.57;;;;;;;;;;5016822;28;20038;-65
2021/09/19 04:14:15;;;;;;;14.07;9.05;;;;;;;;;;5037620;28;20469;-64
2021/09/19 04:16:41;;;;;;;11.90;8.85;;;;;;;;;;5037435;28;20103;-64
2021/09/19 04:19:08;;;;;;;16.45;9.77;;;;;;;;;;5022682;28;20048;-64
2021/09/19 04:21:35;;;;;;;11.30;8.25;;;;;;;;;;5038363;28;20529;-64
2021/09/19 04:24:01;;;;;;;14.65;8.02;;;;;;;;;;5041165;28;20048;-64
2021/09/19 04:26:27;;;;;;;12.70;8.07;;;;;;;;;;5037556;28;20556;-64
2021/09/19 04:28:54;;;;;;;14.18;7.45;;;;;;;;;;5027544;28;20116;-64
2021/09/19 04:31:20;;;;;;;11.95;6.55;;;;;;;;;;5039875;28;20036;-64
2021/09/19 04:33:46;;;;;;;13.65;7.47;;;;;;;;;;5036210;28;20045;-64
2021/09/19 04:36:12;;;;;;;8.70;5.50;;;;;;;;;;5021665;28;20203;-64
2021/09/19 04:38:39;;;;;;;9.15;5.88;;;;;;;;;;5035814;28;20497;-63
2021/09/19 04:41:05;;;;;;;9.40;5.43;;;;;;;;;;5023406;28;21407;-64
2021/09/19 04:43:31;;;;;;;9.32;5.70;;;;;;;;;;5041828;28;20048;-64
2021/09/19 04:45:57;;;;;;;9.65;5.13;;;;;;;;;;5043982;28;20049;-63
2021/09/19 04:48:23;;;;;;;9.63;5.50;;;;;;;;;;5021078;28;20064;-63
2021/09/19 04:50:49;;;;;;;9.32;5.13;;;;;;;;;;5038566;28;20042;-64
2021/09/19 04:53:16;;;;;;;12.27;4.90;;;;;;;;;;5039877;28;20512;-64
2021/09/19 04:55:42;;;;;;;10.25;4.70;;;;;;;;;;5014003;28;20041;-64
2021/09/19 04:58:08;;;;;;;11.35;5.00;;;;;;;;;;5038639;28;20053;-64
2021/09/19 05:00:34;;;;;;;8.70;4.82;;;;;;;;;;5013795;28;20049;-64
2021/09/19 05:03:00;;;;;;;10.63;5.03;;;;;;;;;;5023679;28;20037;-64
2021/09/19 05:05:26;;;;;;;10.60;5.10;;;;;;;;;;5033263;28;20489;-63
2021/09/19 05:07:52;;;;;;;7.70;4.53;;;;;;;;;;5021675;28;20057;-64
2021/09/19 05:10:19;;;;;;;7.60;5.05;;;;;;;;;;5021572;28;20057;-63
2021/09/19 05:12:45;;;;;;;9.88;4.75;;;;;;;;;;5041234;28;20051;-64
2021/09/19 05:15:11;;;;;;;9.88;5.28;;;;;;;;;;5017367;28;20048;-63
2021/09/19 05:17:37;;;;;;;8.02;4.80;;;;;;;;;;5023947;28;20057;-64
2021/09/19 05:20:04;;;;;;;10.43;5.25;;;;;;;;;;5035441;28;20059;-64
2021/09/19 05:22:30;;;;;;;10.30;5.68;;;;;;;;;;5011106;28;20049;-63
2021/09/19 05:24:56;;;;;;;8.93;5.35;;;;;;;;;;5038705;28;20394;-64
2021/09/19 05:27:23;;;;;;;9.15;5.63;;;;;;;;;;5043808;28;20045;-63
2021/09/19 05:29:49;;;;;;;9.80;5.85;;;;;;;;;;5037570;28;20441;-63
2021/09/19 05:32:15;;;;;;;11.15;5.68;;;;;;;;;;5021696;28;20073;-63
2021/09/19 05:34:41;;;;;;;9.35;5.75;;;;;;;;;;5024859;28;20562;-63
2021/09/19 05:37:07;;;;;;;10.60;6.03;;;;;;;;;;5022268;28;20470;-63
2021/09/19 05:39:34;;;;;;;8.60;5.53;;;;;;;;;;5043459;28;20473;-63
2021/09/19 05:42:00;;;;;;;14.63;6.32;;;;;;;;;;5043132;28;20049;-63
2021/09/19 05:44:27;;;;;;;13.18;6.00;;;;;;;;;;5044450;28;20519;-63
2021/09/19 05:46:53;;;;;;;10.30;5.70;;;;;;;;;;5023069;28;20111;-63
2021/09/19 05:49:19;;;;;;;10.80;5.90;;;;;;;;;;5045160;28;20131;-63
2021/09/19 05:51:45;;;;;;;11.02;6.07;;;;;;;;;;5046122;28;20357;-63
2021/09/19 05:54:12;;;;;;;9.95;6.00;;;;;;;;;;5029404;28;20056;-64
2021/09/19 05:56:38;;;;;;;9.48;6.07;;;;;;;;;;5042217;28;20113;-63
2021/09/19 05:59:04;;;;;;;8.75;5.20;;;;;;;;;;5047123;28;20036;-63
2021/09/19 06:01:30;;;;;;;10.32;4.85;;;;;;;;;;5042620;28;20037;-63
2021/09/19 06:03:56;;;;;;;9.98;4.90;;;;;;;;;;5043179;28;20091;-63
2021/09/19 06:06:23;;;;;;;10.13;5.20;;;;;;;;;;5019745;28;20080;-64
2021/09/19 06:08:49;;;;;;;8.82;5.28;;;;;;;;;;5043241;28;20044;-63
2021/09/19 06:11:15;;;;;;;7.68;5.22;;;;;;;;;;5042244;28;20049;-63
2021/09/19 06:13:41;;;;;;;7.25;5.35;;;;;;;;;;5042787;28;20065;-63
2021/09/19 06:16:07;;;;;;;10.30;5.50;;;;;;;;;;5026401;28;20064;-63
2021/09/19 06:18:34;;;;;;;8.15;5.00;;;;;;;;;;5023403;28;20049;-63
2021/09/19 06:21:01;;;;;;;7.70;4.43;;;;;;;;;;5047847;28;20182;-63
2021/09/19 06:23:29;;;;;;;12.15;4.68;;;;;;;;;;5023372;28;20048;-62
2021/09/19 06:25:55;;;;;;;11.75;5.47;;;;;;;;;;5025370;28;20053;-64
2021/09/19 06:28:22;;;;;;;8.88;4.82;;;;;;;;;;5019903;28;20080;-63
2021/09/19 06:30:48;;;;;;;12.52;6.03;;;;;;;;;;5024893;28;20049;-62
2021/09/19 06:33:14;;;;;;;11.85;5.03;;;;;;;;;;5039812;28;20048;-63
2021/09/19 06:35:41;;;;;;;11.70;5.40;;;;;;;;;;5040824;28;20107;-63
2021/09/19 06:38:09;;;;;;;9.57;4.93;;;;;;;;;;5045445;28;20037;-63
2021/09/19 06:40:35;;;;;;;10.10;5.22;;;;;;;;;;5044907;28;20052;-63
2021/09/19 06:43:01;;;;;;;11.38;5.32;;;;;;;;;;5044189;28;20055;-64
2021/09/19 06:45:28;;;;;;;12.70;5.32;;;;;;;;;;5024484;28;20100;-64
2021/09/19 06:47:54;;;;;;;13.43;6.50;;;;;;;;;;5047147;28;20037;-64
2021/09/19 06:50:20;;;;;;;8.38;4.93;;;;;;;;;;5023317;28;20041;-64
2021/09/19 06:52:46;;;;;;;8.15;4.93;;;;;;;;;;5030080;28;20072;-64
2021/09/19 06:55:12;;;;;;;11.50;6.05;;;;;;;;;;5056899;28;20070;-64
2021/09/19 06:57:39;;;;;;;9.35;5.43;;;;;;;;;;5058628;28;20120;-63
2021/09/19 07:00:05;;;;;;;12.10;6.18;;;;;;;;;;5047436;28;20761;-64
2021/09/19 07:02:32;;;;;;;13.10;5.63;;;;;;;;;;5042745;28;20052;-64
2021/09/19 07:04:58;;;;;;;11.77;5.53;;;;;;;;;;5067568;28;20411;-64
2021/09/19 07:07:25;;;;;;;8.05;5.80;;;;;;;;;;5047981;28;20049;-64
2021/09/19 07:09:51;;;;;;;9.98;5.43;;;;;;;;;;5065381;28;20120;-63
2021/09/19 07:12:17;;;;;;;11.10;5.95;;;;;;;;;;5044814;28;20036;-64
2021/09/19 07:14:43;;;;;;;11.15;5.78;;;;;;;;;;5054781;28;20215;-64
2021/09/19 07:17:10;;;;;;;11.63;5.47;;;;;;;;;;5042089;28;20052;-64
2021/09/19 07:19:36;;;;;;;11.70;5.57;;;;;;;;;;5056980;28;20073;-63
2021/09/19 07:22:02;;;;;;;10.43;6.00;;;;;;;;;;5060375;28;20127;-63
2021/09/19 07:24:28;;;;;;;12.85;5.93;;;;;;;;;;5058947;28;20044;-62
2021/09/19 07:26:54;;;;;;;9.55;5.88;;;;;;;;;;5041338;28;20405;-63
2021/09/19 07:29:21;;;;;;;11.18;6.47;;;;;;;;;;5057204;28;20106;-63
2021/09/19 07:31:51;;;;;;;9.35;5.72;;;;;;;;;;5062728;28;20049;-63
2021/09/19 07:34:18;;;;;;;11.57;6.03;;;;;;;;;;5060625;28;20487;-63
2021/09/19 07:36:47;;;;;;;10.65;5.30;;;;;;;;;;5036675;28;20056;-63
2021/09/19 07:39:13;;;;;;;16.58;5.75;;;;;;;;;;5040606;28;20045;-63
2021/09/19 07:41:39;;;;;;;10.10;6.18;;;;;;;;;;5056867;28;20051;-63
2021/09/19 07:44:06;;;;;;;13.07;6.40;;;;;;;;;;5039048;28;20075;-63
2021/09/19 07:46:33;;;;;;;10.68;5.75;;;;;;;;;;5038928;28;20041;-63
2021/09/19 07:48:59;;;;;;;9.73;5.65;;;;;;;;;;5052956;28;20369;-63
2021/09/19 07:51:25;;;;;;;12.85;5.90;;;;;;;;;;5066873;28;20450;-63
2021/09/19 07:53:52;;;;;;;12.35;5.65;;;;;;;;;;5047929;28;20064;-64
2021/09/19 07:56:20;;;;;;;11.10;6.18;;;;;;;;;;5044581;28;20052;-64
2021/09/19 07:58:46;;;;;;;11.15;5.95;;;;;;;;;;5058862;28;20071;-64
2021/09/19 08:01:12;;;;;;;8.52;5.50;;;;;;;;;;5044648;28;20044;-64
2021/09/19 08:03:39;;;;;;;10.25;5.70;;;;;;;;;;5060512;28;20318;-64
2021/09/19 08:06:06;;;;;;;11.52;6.57;;;;;;;;;;5039203;28;20462;-64
2021/09/19 08:08:32;;;;;;;13.15;6.70;;;;;;;;;;5061766;28;20125;-63
2021/09/19 08:10:59;;;;;;;12.13;6.47;;;;;;;;;;5062351;28;20041;-63
2021/09/19 08:13:25;;;;;;;11.23;6.15;;;;;;;;;;5059800;28;20151;-63
2021/09/19 08:15:51;;;;;;;13.35;6.32;;;;;;;;;;5059307;28;20476;-63
2021/09/19 08:18:18;;;;;;;11.73;6.55;;;;;;;;;;5062837;28;20044;-63
2021/09/19 08:20:44;;;;;;;9.32;6.35;;;;;;;;;;5059066;28;20101;-64
2021/09/19 08:23:10;;;;;;;10.82;6.43;;;;;;;;;;5039718;28;20040;-64
2021/09/19 08:25:36;;;;;;;10.48;6.72;;;;;;;;;;5062418;28;20045;-63
2021/09/19 08:28:03;;;;;;;13.80;6.88;;;;;;;;;;5060073;28;20128;-64
2021/09/19 08:30:29;;;;;;;9.82;6.53;;;;;;;;;;5056267;28;20044;-63
2021/09/19 08:32:55;;;;;;;10.10;6.68;;;;;;;;;;5041225;28;20457;-63
2021/09/19 08:35:21;;;;;;;13.15;6.90;;;;;;;;;;5036990;28;20049;-70
2021/09/19 08:37:48;;;;;;;9.95;5.95;;;;;;;;;;5059785;28;20449;-70
2021/09/19 08:40:14;;;;;;;12.95;6.25;;;;;;;;;;5061562;28;20091;-70
2021/09/19 08:42:41;;;;;;;10.88;6.22;;;;;;;;;;5041254;28;20045;-70
2021/09/19 08:45:08;;;;;;;10.63;6.03;;;;;;;;;;5028087;28;20403;-70
2021/09/19 08:47:36;;;;;;;9.57;6.18;;;;;;;;;;5058659;28;20055;-70
2021/09/19 08:50:04;;;;;;;13.57;6.43;;;;;;;;;;5042639;28;20040;-70
2021/09/19 08:52:30;;;;;;;10.40;6.55;;;;;;;;;;5035753;28;20044;-69
2021/09/19 08:54:57;;;;;;;12.02;5.95;;;;;;;;;;5061988;28;20462;-70
2021/09/19 08:57:23;;;;;;;10.55;6.88;;;;;;;;;;5057605;28;20124;-70
2021/09/19 08:59:50;;;;;;;11.02;6.35;;;;;;;;;;5056062;28;20036;-70
2021/09/19 09:02:17;;;;;;;10.05;5.72;;;;;;;;;;5061178;28;20045;-70
2021/09/19 09:04:44;;;;;;;8.18;5.43;;;;;;;;;;5035741;28;20058;-70
2021/09/19 09:07:11;;;;;;;13.30;6.03;;;;;;;;;;5043180;28;20033;-70
2021/09/19 09:09:38;;;;;;;11.63;5.70;;;;;;;;;;5038606;28;20060;-70
2021/09/19 09:12:04;;;;;;;9.52;4.95;;;;;;;;;;5040816;28;20064;-70
2021/09/19 09:14:38;;;;;;;10.50;5.47;;;;;;;;;;5038337;28;20142;-70
2021/09/19 09:17:11;;;;;;;9.10;5.30;;;;;;;;;;5060239;28;20041;-70
2021/09/19 09:19:37;;;;;;;;;;;;;;;;;;5037366;28;20110;-70
2021/09/19 09:22:04;;;;;;;9.32;5.00;;;;;;;;;;5037245;28;19928;-70
2021/09/19 09:24:30;;;;;;;7.28;4.97;;;;;;;;;;5041368;28;20411;-70
2021/09/19 09:26:56;;;;;;;10.23;5.55;;;;;;;;;;5046033;28;20041;-70
2021/09/19 09:29:23;;;;;;;9.50;4.97;;;;;;;;;;5039917;28;20048;-70
2021/09/19 09:31:50;;;;;;;7.50;4.90;;;;;;;;;;5043739;28;20049;-70
2021/09/19 09:34:18;;;;;;;9.38;5.72;;;;;;;;;;5037763;28;20047;-70
2021/09/19 09:36:45;;;;;;;11.55;5.75;;;;;;;;;;5059084;28;20145;-70
2021/09/19 09:39:22;;;;;;;10.95;5.40;;;;;;;;;;5058987;28;20064;-70
2021/09/19 09:41:49;;;;;;;11.10;5.03;;;;;;;;;;5060727;28;20037;-70
2021/09/19 09:44:25;;;;;;;8.00;5.03;;;;;;;;;;5040784;28;20132;-70
2021/09/19 09:46:52;;;;;;;10.48;5.60;;;;;;;;;;5039209;28;20040;-70
2021/09/19 09:49:22;;;;;;;12.52;6.03;;;;;;;;;;5058981;28;20037;-70
2021/09/19 09:51:49;;;;;;;7.60;5.03;;;;;;;;;;5061751;28;20116;-70
2021/09/19 09:54:15;;;;;;;8.48;5.18;;;;;;;;;;5054449;28;20043;-70
2021/09/19 09:56:46;;;;;;;8.43;5.07;;;;;;;;;;5041926;28;20044;-70
2021/09/19 09:59:15;;;;;;;8.85;5.28;;;;;;;;;;5057968;28;20079;-70
2021/09/19 10:01:41;;;;;;;12.50;5.03;;;;;;;;;;5043105;28;20052;-70
2021/09/19 10:04:08;;;;;;;11.20;4.72;;;;;;;;;;5021692;28;20495;-70
2021/09/19 10:06:34;;;;;;;9.25;5.10;;;;;;;;;;5041803;28;20060;-73
2021/09/19 10:09:01;;;;;;;8.50;4.70;;;;;;;;;;5057061;28;20048;-70
2021/09/19 10:11:27;;;;;;;10.63;5.32;;;;;;;;;;5056829;28;20569;-70
2021/09/19 10:13:54;;;;;;;8.43;5.00;;;;;;;;;;5044350;28;20056;-70
2021/09/19 10:16:20;;;;;;;9.80;5.15;;;;;;;;;;5040080;28;20055;-70
2021/09/19 10:18:48;;;;;;;8.27;4.82;;;;;;;;;;5060827;28;20512;-70
2021/09/19 10:21:17;;;;;;;9.88;4.70;;;;;;;;;;5043261;28;20119;-71
2021/09/19 10:23:44;;;;;;;8.65;4.78;;;;;;;;;;5045926;28;20055;-70
2021/09/19 10:26:13;;;;;;;7.88;4.32;;;;;;;;;;5046585;28;20045;-70
2021/09/19 10:28:39;;;;;;;7.47;3.90;;;;;;;;;;5067663;28;20068;-69
2021/09/19 10:31:09;;;;;;;7.90;4.35;;;;;;;;;;5040799;28;20491;-70
2021/09/19 10:33:38;;;;;;;9.65;4.30;;;;;;;;;;5061873;28;20072;-69
2021/09/19 10:36:11;;;;;;;9.13;5.55;;;;;;;;;;5043433;28;20048;-71
2021/09/19 10:38:40;;;;;;;9.30;5.07;;;;;;;;;;5061055;28;20211;-71
2021/09/19 10:41:17;;;;;;;11.75;4.88;;;;;;;;;;5057101;28;20044;-71
2021/09/19 10:43:54;;;;;;;10.13;5.35;;;;;;;;;;5046264;28;20088;-71
2021/09/19 10:46:48;;;;;;;7.80;4.93;;;;;;;;;;5038755;28;20048;-71
2021/09/19 10:49:17;;;;;;;9.80;5.43;;;;;;;;;;5040381;28;20056;-69
2021/09/19 10:51:59;;;;;;;8.50;4.47;;;;;;;;;;5062400;28;20093;-69
2021/09/19 10:54:46;;;;;;;10.88;4.95;;;;;;;;;;5041818;28;20053;-69
2021/09/19 10:57:14;;;;;;;8.38;4.90;;;;;;;;;;5047559;28;20123;-69
2021/09/19 10:59:59;;;;;;;8.43;5.07;;;;;;;;;;5048061;28;20044;-69
2021/09/19 11:02:27;;;;;;;7.82;5.20;;;;;;;;;;5042315;28;20083;-69
2021/09/19 11:05:13;;;;;;;6.43;4.20;;;;;;;;;;5040527;28;20484;-69
2021/09/19 11:07:43;;;;;;;15.32;5.63;;;;;;;;;;5048154;28;20091;-71
2021/09/19 11:10:10;;;;;;;11.80;5.25;;;;;;;;;;5047650;28;20032;-70
2021/09/19 11:12:43;;;;;;;9.52;4.63;;;;;;;;;;5042464;28;20056;-70
2021/09/19 11:15:11;;;;;;;7.20;3.95;;;;;;;;;;5056432;28;20479;-70
2021/09/19 11:17:45;;;;;;;6.75;4.30;;;;;;;;;;5043189;28;20487;-70
2021/09/19 11:20:13;;;;;;;7.78;4.43;;;;;;;;;;5037414;28;20044;-70
2021/09/19 11:22:40;;;;;;;8.48;4.40;;;;;;;;;;5057714;28;20064;-66
2021/09/19 11:25:06;;;;;;;5.45;3.75;;;;;;;;;;5058434;28;20043;-66
2021/09/19 11:27:33;;;;;;;9.00;4.10;;;;;;;;;;5056501;28;20044;-66
2021/09/19 11:29:59;;;;;;;6.60;3.58;;;;;;;;;;5040131;28;20045;-66
2021/09/19 11:32:28;;;;;;;6.45;3.58;;;;;;;;;;5060460;28;20041;-66
2021/09/19 11:34:54;;;;;;;4.70;3.22;;;;;;;;;;5059332;28;20111;-66
2021/09/19 11:37:21;;;;;;;7.40;2.95;;;;;;;;;;5058620;28;20045;-66
2021/09/19 11:39:47;;;;;;;6.20;3.70;;;;;;;;;;5048073;28;20065;-66
2021/09/19 11:42:14;;;;;;;7.43;3.50;;;;;;;;;;5066206;28;20388;-66
2021/09/19 11:44:48;;;;;;;6.05;3.30;;;;;;;;;;5064047;28;20052;-66
2021/09/19 11:47:18;;;;;;;5.95;3.30;;;;;;;;;;5056462;28;20090;-66
2021/09/19 11:49:46;;;;;;;6.82;3.80;;;;;;;;;;5058640;28;20047;-66
2021/09/19 11:52:12;;;;;;;6.30;3.30;;;;;;;;;;5036873;28;20186;-67
2021/09/19 11:54:41;;;;;;;5.43;3.10;;;;;;;;;;5043659;28;20404;-66
2021/09/19 11:57:08;;;;;;;6.60;3.28;;;;;;;;;;5041651;28;20067;-65
2021/09/19 11:59:34;;;;;;;4.88;2.60;;;;;;;;;;5059382;28;20041;-66
2021/09/19 12:02:03;;;;;;;5.88;2.72;;;;;;;;;;5041212;28;20143;-66
2021/09/19 12:04:29;;;;;;;5.25;2.42;;;;;;;;;;5059754;28;20131;-66
2021/09/19 12:06:58;;;;;;;4.22;2.22;;;;;;;;;;5058740;28;20100;-66
2021/09/19 12:09:24;;;;;;;5.50;3.35;;;;;;;;;;5065201;28;20044;-66
2021/09/19 12:11:51;;;;;;;5.93;2.90;;;;;;;;;;5058815;28;20040;-66
2021/09/19 12:14:20;;;;;;;5.80;2.55;;;;;;;;;;5054470;28;20092;-66
2021/09/19 12:16:59;;;;;;;5.55;2.50;;;;;;;;;;5060807;28;20044;-66
2021/09/19 12:19:25;;;;;;;6.20;2.33;;;;;;;;;;5040951;28;20129;-66
2021/09/19 12:21:53;;;;;;;5.78;2.25;;;;;;;;;;5060189;28;20454;-66
2021/09/19 12:24:22;;;;;;;4.22;2.20;;;;;;;;;;5060071;28;20063;-66
2021/09/19 12:26:48;;;;;;;7.43;2.55;;;;;;;;;;5060970;28;20413;-66
2021/09/19 12:29:16;;;;;;;5.70;2.20;;;;;;;;;;5053471;28;20041;-66
2021/09/19 12:31:45;;;;;;;5.18;2.55;;;;;;;;;;5039408;28;20044;-66
2021/09/19 12:34:14;;;;;;;4.55;2.70;;;;;;;;;;5039283;28;21318;-66
2021/09/19 12:36:42;;;;;;;8.20;2.47;;;;;;;;;;5039183;28;20495;-66
2021/09/19 12:39:15;;;;;;;6.15;3.03;;;;;;;;;;5040828;28;20455;-66
2021/09/19 12:41:41;;;;;;;9.02;3.00;;;;;;;;;;5047522;28;20057;-66
2021/09/19 12:44:12;;;;;;;5.28;2.75;;;;;;;;;;5056957;28;20044;-66
2021/09/19 12:46:43;;;;;;;4.85;2.60;;;;;;;;;;5054122;28;20052;-68
2021/09/19 12:49:09;;;;;;;6.70;2.45;;;;;;;;;;5057923;28;20056;-67
2021/09/19 12:51:35;;;;;;;3.50;2.20;;;;;;;;;;5041623;28;20438;-67
2021/09/19 12:54:01;;;;;;;5.53;2.40;;;;;;;;;;5044828;28;20131;-67
2021/09/19 12:56:27;;;;;;;5.07;2.78;;;;;;;;;;5055420;28;20086;-67
2021/09/19 12:58:55;;;;;;;5.97;2.88;;;;;;;;;;5040318;28;20056;-67
2021/09/19 13:01:22;;;;;;;6.10;3.08;;;;;;;;;;5042763;28;20048;-67
2021/09/19 13:03:50;;;;;;;4.82;2.75;;;;;;;;;;5055430;28;20472;-67
2021/09/19 13:06:16;;;;;;;7.28;3.42;;;;;;;;;;5039785;28;20084;-67
2021/09/19 13:08:47;;;;;;;6.65;3.72;;;;;;;;;;5040470;28;20061;-67
2021/09/19 13:11:13;;;;;;;5.75;3.22;;;;;;;;;;5043943;28;20053;-67
2021/09/19 13:13:40;;;;;;;5.47;3.28;;;;;;;;;;5059519;28;20052;-67
2021/09/19 13:16:06;;;;;;;16.23;4.47;;;;;;;;;;5057977;28;20041;-65
2021/09/19 13:18:32;;;;;;;6.80;3.60;;;;;;;;;;5057972;28;20369;-65
2021/09/19 13:20:58;;;;;;;9.68;3.55;;;;;;;;;;5058706;28;20130;-65
2021/09/19 13:23:25;;;;;;;6.60;3.42;;;;;;;;;;5055771;28;20051;-65
2021/09/19 13:25:51;;;;;;;6.35;4.05;;;;;;;;;;5055221;28;20105;-65
2021/09/19 13:28:17;;;;;;;6.93;4.65;;;;;;;;;;5060012;28;20052;-65
2021/09/19 13:30:43;;;;;;;5.80;3.40;;;;;;;;;;5053044;28;20037;-66
2021/09/19 13:33:10;;;;;;;10.13;3.80;;;;;;;;;;5054782;28;20044;-65
2021/09/19 13:35:36;;;;;;;5.68;3.47;;;;;;;;;;5057278;28;20084;-65
2021/09/19 13:38:02;;;;;;;8.88;4.00;;;;;;;;;;5063986;28;21623;-66
2021/09/19 13:40:28;;;;;;;5.32;3.75;;;;;;;;;;5056735;28;20076;-65
2021/09/19 13:42:55;;;;;;;6.68;3.78;;;;;;;;;;5046217;28;20064;-65
2021/09/19 13:45:21;;;;;;;9.73;4.72;;;;;;;;;;5041028;28;20044;-65
2021/09/19 13:47:47;;;;;;;7.38;4.25;;;;;;;;;;5041131;28;20415;-65
2021/09/19 13:50:14;;;;;;;7.95;4.07;;;;;;;;;;5061453;28;20452;-65
2021/09/19 13:52:40;;;;;;;7.60;3.92;;;;;;;;;;5058513;28;20055;-65
2021/09/19 13:55:06;;;;;;;7.25;3.83;;;;;;;;;;5057483;28;20515;-65
2021/09/19 13:57:33;;;;;;;5.65;3.50;;;;;;;;;;5061582;28;20045;-65
2021/09/19 13:59:59;;;;;;;8.10;3.70;;;;;;;;;;5058469;28;20124;-65
2021/09/19 14:02:25;;;;;;;7.38;3.97;;;;;;;;;;5042663;28;20110;-65
2021/09/19 14:04:51;;;;;;;6.82;3.58;;;;;;;;;;5061428;28;20126;-65
2021/09/19 14:07:17;;;;;;;6.18;3.35;;;;;;;;;;5047638;28;20128;-65
2021/09/19 14:09:44;;;;;;;6.22;3.55;;;;;;;;;;5044183;28;20079;-66
2021/09/19 14:12:10;;;;;;;8.18;3.72;;;;;;;;;;5041134;28;20090;-66
2021/09/19 14:14:36;;;;;;;6.70;3.42;;;;;;;;;;5039531;28;20076;-65
2021/09/19 14:17:03;;;;;;;7.65;3.58;;;;;;;;;;5043152;28;20028;-66
2021/09/19 14:19:29;;;;;;;6.97;3.88;;;;;;;;;;5045207;28;20041;-65
2021/09/19 14:21:55;;;;;;;7.15;4.47;;;;;;;;;;5028318;28;20434;-66
2021/09/19 14:24:22;;;;;;;8.77;3.90;;;;;;;;;;5040517;28;20119;-65
2021/09/19 14:26:48;;;;;;;5.07;3.28;;;;;;;;;;5059293;28;20032;-65
2021/09/19 14:29:14;;;;;;;7.47;3.20;;;;;;;;;;5057904;28;20361;-66
2021/09/19 14:31:40;;;;;;;6.78;4.00;;;;;;;;;;5036075;28;20041;-66
2021/09/19 14:34:08;;;;;;;6.50;3.53;;;;;;;;;;5040449;28;20041;-67
2021/09/19 14:36:34;;;;;;;7.82;4.18;;;;;;;;;;5028551;28;20057;-67